This is the latest recevied weather packets stored in our database for station/object WD5U-1. If no packets are shown the sender has not sent any weather packets the latest 10 day(s).
| Time | Temp. | Humidity | Pressure | Rain* | Wind** | Luminosity | Snow |
|---|---|---|---|---|---|---|---|
| 1777741816 | 21.67° C | 40% | 1024.1 hPa | 0 mm | - | - | - |
| 1777741461 | 21.67° C | 44% | 1024 hPa | 0 mm | - | - | - |
| 1777741342 | 21.67° C | 44% | 1024 hPa | 0 mm | - | - | - |
| 1777740884 | 21.11° C | 42% | 1023.9 hPa | 0 mm | - | - | - |
| 1777740621 | 21.11° C | 43% | 1023.9 hPa | 0 mm | - | - | - |
| 1777740257 | 21.11° C | 42% | 1023.9 hPa | 0 mm | - | - | - |
| 1777740145 | 21.11° C | 41% | 1024 hPa | 0 mm | - | - | - |
| 1777739538 | 20.56° C | 40% | 1024.1 hPa | 0 mm | - | - | - |
| 1777739417 | 20.56° C | 40% | 1024.2 hPa | 0 mm | - | - | - |
| 1777739062 | 22.78° C | 38% | 1024.2 hPa | 0 mm | - | - | - |
| 1777737858 | 21.67° C | 40% | 1024 hPa | 0 mm | - | - | - |
| 1777736542 | 19.44° C | 43% | 1023.9 hPa | 0 mm | - | - | - |
| 1777736076 | 20° C | 41% | 1023.8 hPa | 0 mm | - | - | - |
| 1777735823 | 19.44° C | 38% | 1023.9 hPa | 0 mm | - | - | - |
| 1777735104 | 19.44° C | 40% | 1023.9 hPa | 0 mm | - | - | - |
| 1777734618 | 18.89° C | 41% | 1023.9 hPa | 0 mm | - | - | - |
| 1777734023 | 18.89° C | 46% | 1023.8 hPa | 0 mm | - | - | - |
| 1777733657 | 18.89° C | 39% | 1024 hPa | 0 mm | - | - | - |
| 1777733303 | 18.33° C | 45% | 1023.9 hPa | 0 mm | - | - | - |
| 1777732817 | 18.33° C | 44% | 1023.9 hPa | 0 mm | - | - | - |
| 1777732726 | 18.33° C | 51% | 1023.8 hPa | 0 mm | - | - | - |
| 1777732584 | 17.78° C | 49% | 1023.7 hPa | 0 mm | - | - | - |
| 1777729942 | 15.56° C | 68% | 1023.5 hPa | 0 mm | - | - | - |
| 1777729820 | 15° C | 68% | 1023.5 hPa | 0 mm | - | - | - |
| 1777729122 | 14.44° C | 72% | 1023.5 hPa | 0 mm | - | - | - |
* Rain latest hour (hover to see other rain measurements)
** Current wind speed in m/s (hover to see current wind gust speed)